createdAt,value
2019-04-10T00:01:01.580Z,100.00
2019-04-10T00:03:36.726Z,100.00
2019-04-10T00:06:04.749Z,100.00
2019-04-10T00:08:36.557Z,100.00
2019-04-10T00:11:06.581Z,100.00
2019-04-10T00:13:40.858Z,100.00
2019-04-10T00:16:15.802Z,100.00
2019-04-10T00:18:46.383Z,100.00
2019-04-10T00:21:17.523Z,100.00
2019-04-10T00:23:47.151Z,100.00
2019-04-10T00:26:22.231Z,100.00
2019-04-10T00:28:52.335Z,100.00
2019-04-10T00:31:24.592Z,100.00
2019-04-10T00:33:54.860Z,100.00
2019-04-10T00:36:31.134Z,100.00
2019-04-10T00:39:00.610Z,100.00
2019-04-10T00:41:30.359Z,100.00
2019-04-10T00:44:00.113Z,100.00
2019-04-10T00:46:32.558Z,100.00
2019-04-10T00:49:02.837Z,100.00
2019-04-10T00:51:33.158Z,100.00
2019-04-10T00:54:07.819Z,100.00
2019-04-10T00:56:39.401Z,100.00
2019-04-10T00:59:10.009Z,100.00
2019-04-10T01:01:40.249Z,100.00
2019-04-10T01:04:10.662Z,100.00
2019-04-10T01:06:41.684Z,100.00
2019-04-10T01:09:11.209Z,100.00
2019-04-10T01:11:41.466Z,100.00
2019-04-10T01:14:11.720Z,100.00
2019-04-10T01:16:41.795Z,100.00
2019-04-10T01:19:12.008Z,100.00
2019-04-10T01:21:42.540Z,100.00
2019-04-10T01:24:19.625Z,100.00
2019-04-10T01:26:49.674Z,100.00
2019-04-10T01:29:19.699Z,100.00
2019-04-10T01:31:49.700Z,100.00
2019-04-10T01:34:21.091Z,100.00
2019-04-10T01:36:52.337Z,100.00
2019-04-10T01:39:30.545Z,100.00
2019-04-10T01:42:03.988Z,100.00
2019-04-10T01:44:33.691Z,100.00
2019-04-10T01:47:10.926Z,100.00
2019-04-10T01:49:42.430Z,100.00
2019-04-10T01:52:15.111Z,100.00
2019-04-10T01:54:47.227Z,100.00
2019-04-10T01:57:19.885Z,100.00
2019-04-10T01:59:49.953Z,100.00
2019-04-10T02:02:25.429Z,100.00
2019-04-10T02:04:55.210Z,100.00
2019-04-10T02:07:34.076Z,100.00
2019-04-10T02:10:09.968Z,100.00
2019-04-10T02:12:45.069Z,100.00
2019-04-10T02:15:17.803Z,100.00
2019-04-10T02:17:48.775Z,100.00
2019-04-10T02:20:18.981Z,100.00
2019-04-10T02:22:50.299Z,100.00
2019-04-10T02:25:21.964Z,100.00
2019-04-10T02:27:54.396Z,100.00
2019-04-10T02:30:26.197Z,100.00
2019-04-10T02:33:02.233Z,100.00
2019-04-10T02:35:31.884Z,100.00
2019-04-10T02:38:21.200Z,100.00
2019-04-10T02:40:37.864Z,100.00
2019-04-10T02:43:16.145Z,100.00
2019-04-10T02:45:46.987Z,100.00
2019-04-10T02:48:17.141Z,100.00
2019-04-10T02:50:47.162Z,100.00
2019-04-10T02:53:17.423Z,100.00
2019-04-10T02:55:49.330Z,100.00
2019-04-10T02:58:24.659Z,100.00
2019-04-10T03:00:59.073Z,100.00
2019-04-10T03:03:30.014Z,100.00
2019-04-10T03:06:02.599Z,100.00
2019-04-10T03:08:51.737Z,100.00
2019-04-10T03:11:11.694Z,100.00
2019-04-10T03:13:43.016Z,100.00
2019-04-10T03:16:14.039Z,100.00
2019-04-10T03:18:45.189Z,100.00
2019-04-10T03:21:16.439Z,100.00
2019-04-10T03:23:47.351Z,100.00
2019-04-10T03:26:18.928Z,100.00
2019-04-10T03:28:51.532Z,100.00
2019-04-10T03:31:24.623Z,100.00
2019-04-10T03:34:14.270Z,100.00
2019-04-10T03:36:48.260Z,100.00
2019-04-10T03:39:19.909Z,100.00
2019-04-10T03:41:49.091Z,100.00
2019-04-10T03:44:22.622Z,100.00
2019-04-10T03:46:53.866Z,100.00
2019-04-10T03:49:23.775Z,100.00
2019-04-10T03:51:56.496Z,100.00
2019-04-10T03:54:27.975Z,100.00
2019-04-10T03:56:58.280Z,100.00
2019-04-10T03:59:30.578Z,100.00
2019-04-10T04:02:00.781Z,100.00
2019-04-10T04:04:33.414Z,100.00
2019-04-10T04:07:03.098Z,100.00
2019-04-10T04:09:32.834Z,100.00
2019-04-10T04:12:02.643Z,100.00
2019-04-10T04:14:32.758Z,100.00
2019-04-10T04:17:02.477Z,100.00
2019-04-10T04:19:33.166Z,100.00
2019-04-10T04:22:03.943Z,100.00
2019-04-10T04:24:33.581Z,100.00
2019-04-10T04:27:03.258Z,100.00
2019-04-10T04:29:33.023Z,100.00
2019-04-10T04:32:05.618Z,100.00
2019-04-10T04:34:38.897Z,100.00
2019-04-10T04:37:13.185Z,100.00
2019-04-10T04:39:43.778Z,100.00
2019-04-10T04:42:16.987Z,100.00
2019-04-10T04:44:49.278Z,100.00
2019-04-10T04:47:20.668Z,100.00
2019-04-10T04:49:50.827Z,100.00
2019-04-10T04:52:21.371Z,100.00
2019-04-10T04:54:51.148Z,100.00
2019-04-10T04:57:21.131Z,100.00
2019-04-10T04:59:54.181Z,100.00
2019-04-10T05:02:24.248Z,100.00
2019-04-10T05:04:55.925Z,100.00
2019-04-10T05:07:25.448Z,100.00
2019-04-10T05:09:55.837Z,100.00
2019-04-10T05:12:27.672Z,100.00
2019-04-10T05:15:02.515Z,100.00
2019-04-10T05:17:39.316Z,100.00
2019-04-10T05:20:17.028Z,100.00
2019-04-10T05:22:46.690Z,100.00
2019-04-10T05:25:16.816Z,100.00
2019-04-10T05:27:47.085Z,100.00
2019-04-10T05:30:21.882Z,100.00
2019-04-10T05:32:55.673Z,100.00
2019-04-10T05:35:25.813Z,100.00
2019-04-10T05:38:01.274Z,100.00
2019-04-10T05:40:33.160Z,100.00
2019-04-10T05:43:03.789Z,100.00
2019-04-10T05:45:33.860Z,100.00
2019-04-10T05:48:04.946Z,100.00
2019-04-10T05:50:35.963Z,100.00
2019-04-10T05:53:06.094Z,100.00
2019-04-10T05:55:36.498Z,100.00
2019-04-10T05:58:05.874Z,100.00
2019-04-10T06:00:35.376Z,100.00
2019-04-10T06:03:14.236Z,100.00
2019-04-10T06:05:44.495Z,100.00
2019-04-10T06:08:14.251Z,100.00
2019-04-10T06:10:43.803Z,100.00
2019-04-10T06:13:19.896Z,100.00
2019-04-10T06:15:51.707Z,100.00
2019-04-10T06:18:21.534Z,100.00
2019-04-10T06:20:51.094Z,100.00
2019-04-10T06:23:20.602Z,100.00
2019-04-10T06:25:50.779Z,100.00
2019-04-10T06:28:21.361Z,100.00
2019-04-10T06:30:52.626Z,100.00
2019-04-10T06:33:22.262Z,100.00
2019-04-10T06:35:57.530Z,100.00
2019-04-10T06:38:30.818Z,100.00
2019-04-10T06:41:00.383Z,100.00
2019-04-10T06:43:30.950Z,100.00
2019-04-10T06:46:00.451Z,100.00
2019-04-10T06:48:30.531Z,100.00
2019-04-10T06:51:01.951Z,100.00
2019-04-10T06:53:31.596Z,100.00
2019-04-10T06:56:02.874Z,100.00
2019-04-10T06:58:32.666Z,100.00
2019-04-10T07:01:02.203Z,100.00
2019-04-10T07:03:45.693Z,100.00
2019-04-10T07:06:11.460Z,100.00
2019-04-10T07:08:38.077Z,100.00
2019-04-10T07:11:11.367Z,100.00
2019-04-10T07:13:40.473Z,100.00
2019-04-10T07:16:11.254Z,100.00
2019-04-10T07:18:48.599Z,100.00
2019-04-10T07:21:16.755Z,100.00
2019-04-10T07:23:46.926Z,100.00
2019-04-10T07:26:25.579Z,100.00
2019-04-10T07:28:49.265Z,100.00
2019-04-10T07:31:19.363Z,100.00
2019-04-10T07:33:50.442Z,100.00
2019-04-10T07:36:20.351Z,100.00
2019-04-10T07:38:53.923Z,100.00
2019-04-10T07:41:24.015Z,100.00
2019-04-10T07:43:54.345Z,100.00
2019-04-10T07:46:23.955Z,100.00
2019-04-10T07:48:54.544Z,100.00
2019-04-10T07:51:24.169Z,100.00
2019-04-10T07:53:53.634Z,100.00
2019-04-10T07:56:23.102Z,100.00
2019-04-10T07:58:53.822Z,100.00
2019-04-10T08:01:24.263Z,100.00
2019-04-10T08:03:54.026Z,100.00
2019-04-10T08:06:24.160Z,100.00
2019-04-10T08:08:53.685Z,100.00
2019-04-10T08:11:23.998Z,100.00
2019-04-10T08:13:54.487Z,100.00
2019-04-10T08:16:25.321Z,100.00
2019-04-10T08:18:56.221Z,100.00
2019-04-10T08:21:25.510Z,100.00
2019-04-10T08:24:02.550Z,100.00
2019-04-10T08:26:32.527Z,100.00
2019-04-10T08:29:09.896Z,100.00
2019-04-10T08:31:39.862Z,100.00
2019-04-10T08:34:17.277Z,100.00
2019-04-10T08:36:47.825Z,100.00
2019-04-10T08:39:32.106Z,100.00
2019-04-10T08:41:48.687Z,100.00
2019-04-10T08:44:20.243Z,100.00
2019-04-10T08:46:50.395Z,100.00
2019-04-10T08:49:21.443Z,100.00
2019-04-10T08:51:52.928Z,100.00
2019-04-10T08:54:24.090Z,100.00
2019-04-10T08:56:54.726Z,100.00
2019-04-10T08:59:25.117Z,100.00
2019-04-10T09:01:55.757Z,100.00
2019-04-10T09:04:28.713Z,100.00
2019-04-10T09:07:01.295Z,100.00
2019-04-10T09:09:29.965Z,100.00
2019-04-10T09:11:59.808Z,100.00
2019-04-10T09:14:29.701Z,100.00
2019-04-10T09:16:59.211Z,100.00
2019-04-10T09:19:38.172Z,100.00
2019-04-10T09:22:10.556Z,100.00
2019-04-10T09:24:40.124Z,100.00
2019-04-10T09:27:09.617Z,100.00
2019-04-10T09:29:40.363Z,100.00
2019-04-10T09:32:11.108Z,100.00
2019-04-10T09:34:42.159Z,100.00
2019-04-10T09:37:11.651Z,100.00
2019-04-10T09:39:43.413Z,100.00
2019-04-10T09:42:13.016Z,100.00
2019-04-10T09:44:43.041Z,100.00
2019-04-10T09:47:16.395Z,100.00
2019-04-10T09:49:46.998Z,100.00
2019-04-10T09:52:18.714Z,100.00
2019-04-10T09:54:51.052Z,100.00
2019-04-10T09:57:20.389Z,100.00
2019-04-10T09:59:52.442Z,100.00
2019-04-10T10:02:23.220Z,100.00
2019-04-10T10:04:53.498Z,100.00
2019-04-10T10:07:46.979Z,100.00
2019-04-10T10:10:17.218Z,100.00
2019-04-10T10:12:46.943Z,100.00
2019-04-10T10:15:17.487Z,100.00
2019-04-10T10:17:48.701Z,100.00
2019-04-10T10:20:21.797Z,100.00
2019-04-10T10:22:57.783Z,100.00
2019-04-10T10:25:27.470Z,100.00
2019-04-10T10:27:58.492Z,100.00
2019-04-10T10:30:29.907Z,100.00
2019-04-10T10:33:03.658Z,100.00
2019-04-10T10:35:41.282Z,97.63
2019-04-10T10:38:11.264Z,95.98
2019-04-10T10:40:41.637Z,96.01
2019-04-10T10:43:11.977Z,97.04
2019-04-10T10:45:43.005Z,95.05
2019-04-10T10:48:12.152Z,97.99
2019-04-10T10:50:42.173Z,94.80
2019-04-10T10:53:12.932Z,96.12
2019-04-10T10:55:42.439Z,94.55
2019-04-10T10:58:13.492Z,90.93
2019-04-10T11:00:44.281Z,88.90
2019-04-10T11:03:16.189Z,86.48
2019-04-10T11:05:46.482Z,87.76
2019-04-10T11:08:16.015Z,89.10
2019-04-10T11:10:49.119Z,88.44
2019-04-10T11:13:16.701Z,88.99
2019-04-10T11:15:46.122Z,85.24
2019-04-10T11:18:16.014Z,86.32
2019-04-10T11:20:45.235Z,89.81
2019-04-10T11:23:14.573Z,86.46
2019-04-10T11:25:46.387Z,86.82
2019-04-10T11:28:16.279Z,86.40
2019-04-10T11:30:47.278Z,84.11
2019-04-10T11:33:17.625Z,80.80
2019-04-10T11:35:51.397Z,83.51
2019-04-10T11:38:25.656Z,83.92
2019-04-10T11:40:59.940Z,81.28
2019-04-10T11:43:30.217Z,81.83
2019-04-10T11:46:02.587Z,80.21
2019-04-10T11:48:32.230Z,82.08
2019-04-10T11:51:06.532Z,85.31
2019-04-10T11:53:41.756Z,84.93
2019-04-10T11:56:13.044Z,82.24
2019-04-10T12:01:14.033Z,81.98
2019-04-10T12:03:50.430Z,79.04
2019-04-10T12:06:20.761Z,82.70
2019-04-10T12:09:13.655Z,81.45
2019-04-10T12:11:23.012Z,80.36
2019-04-10T12:13:52.224Z,85.38
2019-04-10T12:16:23.074Z,79.02
2019-04-10T12:18:55.845Z,76.73
2019-04-10T12:21:27.578Z,75.60
2019-04-10T12:23:58.873Z,75.47
2019-04-10T12:26:28.884Z,73.72
2019-04-10T12:29:00.894Z,78.16
2019-04-10T12:31:30.891Z,76.63
2019-04-10T12:34:01.853Z,79.91
2019-04-10T12:36:34.355Z,76.77
2019-04-10T12:39:07.902Z,74.15
2019-04-10T12:41:39.429Z,76.77
2019-04-10T12:44:13.613Z,76.32
2019-04-10T12:46:46.408Z,73.26
2019-04-10T12:49:15.719Z,75.80
2019-04-10T12:51:45.823Z,77.01
2019-04-10T12:54:17.586Z,76.48
2019-04-10T12:56:48.745Z,76.00
2019-04-10T12:59:25.695Z,73.99
2019-04-10T13:01:57.368Z,75.60
2019-04-10T13:04:30.260Z,73.69
2019-04-10T13:07:00.880Z,73.64
2019-04-10T13:09:31.882Z,73.00
2019-04-10T13:12:04.891Z,72.07
2019-04-10T13:14:34.883Z,73.22
2019-04-10T13:17:04.745Z,71.97
2019-04-10T13:19:39.600Z,68.05
2019-04-10T13:22:11.670Z,69.49
2019-04-10T13:24:43.784Z,66.00
2019-04-10T13:27:19.006Z,63.52
2019-04-10T13:29:48.837Z,64.81
2019-04-10T13:32:18.299Z,63.80
2019-04-10T13:34:49.098Z,65.33
2019-04-10T13:37:22.607Z,64.94
2019-04-10T13:39:52.819Z,62.65
2019-04-10T13:42:34.344Z,62.08
2019-04-10T13:45:04.631Z,61.61
2019-04-10T13:47:36.650Z,64.46
2019-04-10T13:50:08.601Z,64.85
2019-04-10T13:52:40.562Z,64.10
2019-04-10T13:55:13.122Z,63.00
2019-04-10T13:57:46.542Z,66.00
2019-04-10T14:00:28.240Z,65.33
2019-04-10T14:02:58.615Z,65.04
2019-04-10T14:05:31.924Z,68.13
2019-04-10T14:08:02.023Z,65.40
2019-04-10T14:10:33.106Z,63.37
2019-04-10T14:13:03.223Z,61.27
2019-04-10T14:15:35.906Z,62.87
2019-04-10T14:18:06.553Z,59.97
2019-04-10T14:20:36.130Z,55.93
2019-04-10T14:23:23.484Z,55.99
2019-04-10T14:25:58.836Z,58.62
2019-04-10T14:28:29.147Z,59.37
2019-04-10T14:31:05.783Z,59.48
2019-04-10T14:33:35.820Z,59.81
2019-04-10T14:36:07.578Z,61.47
2019-04-10T14:38:41.174Z,63.08
2019-04-10T14:41:20.027Z,61.54
2019-04-10T14:43:50.133Z,59.82
2019-04-10T14:46:20.675Z,57.78
2019-04-10T14:48:52.291Z,58.59
2019-04-10T14:51:24.425Z,57.53
2019-04-10T14:53:55.315Z,60.00
2019-04-10T14:56:28.839Z,59.34
2019-04-10T14:58:59.600Z,58.57
2019-04-10T15:01:32.026Z,57.46
2019-04-10T15:04:03.014Z,60.33
2019-04-10T15:06:33.382Z,59.59
2019-04-10T15:09:04.143Z,59.23
2019-04-10T15:11:33.577Z,56.92
2019-04-10T15:14:05.511Z,55.79
2019-04-10T15:16:36.900Z,57.05
2019-04-10T15:19:06.583Z,55.62
2019-04-10T15:21:36.661Z,54.85
2019-04-10T15:24:07.343Z,54.96
2019-04-10T15:26:40.751Z,55.63
2019-04-10T15:29:12.219Z,55.22
2019-04-10T15:31:41.845Z,54.92
2019-04-10T15:34:11.951Z,54.50
2019-04-10T15:36:46.436Z,54.40
2019-04-10T15:39:16.890Z,56.08
2019-04-10T15:41:46.104Z,54.57
2019-04-10T15:44:16.646Z,53.31
2019-04-10T15:46:47.356Z,50.66
2019-04-10T15:49:17.786Z,48.32
2019-04-10T15:51:49.756Z,47.31
2019-04-10T15:54:24.144Z,47.94
2019-04-10T15:56:54.177Z,48.75
2019-04-10T15:59:25.371Z,52.98
2019-04-10T16:01:55.287Z,51.68
2019-04-10T16:04:25.525Z,51.22
2019-04-10T16:06:56.017Z,49.02
2019-04-10T16:09:28.088Z,47.06
2019-04-10T16:12:18.604Z,45.48
2019-04-10T16:14:55.062Z,46.78
2019-04-10T16:17:41.932Z,45.79
2019-04-10T16:20:33.616Z,45.84
2019-04-10T16:23:28.900Z,47.66
2019-04-10T16:25:58.628Z,46.82
2019-04-10T16:28:29.421Z,45.06
2019-04-10T16:31:01.328Z,46.23
2019-04-10T16:33:32.031Z,44.56
2019-04-10T16:36:05.250Z,45.66
2019-04-10T16:38:36.375Z,44.88
2019-04-10T16:41:05.800Z,46.49
2019-04-10T16:43:36.264Z,47.15
2019-04-10T16:46:07.024Z,47.55
2019-04-10T16:48:38.364Z,48.92
2019-04-10T16:51:07.996Z,46.66
2019-04-10T16:53:41.252Z,46.26
2019-04-10T16:56:11.901Z,43.84
2019-04-10T16:58:42.489Z,44.06
2019-04-10T17:01:18.188Z,43.12
2019-04-10T17:03:47.748Z,42.04
2019-04-10T17:06:30.340Z,43.11
2019-04-10T17:09:00.665Z,44.57
2019-04-10T17:11:33.414Z,45.39
2019-04-10T17:14:04.819Z,47.45
2019-04-10T17:16:35.749Z,46.96
2019-04-10T17:19:09.900Z,48.70
2019-04-10T17:21:42.600Z,49.02
2019-04-10T17:24:13.284Z,49.93
2019-04-10T17:26:43.428Z,53.49
2019-04-10T17:29:16.702Z,55.02
2019-04-10T17:31:47.250Z,59.81
2019-04-10T17:34:16.989Z,60.36
2019-04-10T17:36:47.339Z,61.63
2019-04-10T17:39:19.745Z,61.39
2019-04-10T17:41:56.073Z,63.21
2019-04-10T17:44:26.484Z,64.89
2019-04-10T17:46:55.763Z,67.47
2019-04-10T17:49:25.638Z,70.96
2019-04-10T17:51:54.861Z,70.91
2019-04-10T17:54:29.851Z,72.29
2019-04-10T17:57:00.338Z,72.84
2019-04-10T17:59:30.598Z,71.29
2019-04-10T18:02:02.200Z,71.72
2019-04-10T18:04:33.898Z,73.76
2019-04-10T18:07:05.890Z,75.22
2019-04-10T18:09:38.842Z,75.08
2019-04-10T18:12:10.260Z,74.60
2019-04-10T18:14:42.454Z,75.78
2019-04-10T18:17:14.471Z,78.35
2019-04-10T18:19:46.189Z,79.76
2019-04-10T18:22:15.438Z,79.33
2019-04-10T18:24:45.421Z,79.60
2019-04-10T18:27:14.935Z,80.41
2019-04-10T18:29:45.526Z,80.22
2019-04-10T18:32:15.822Z,79.80
2019-04-10T18:34:46.474Z,81.57
2019-04-10T18:37:19.143Z,82.59
2019-04-10T18:39:57.046Z,82.56
2019-04-10T18:42:28.783Z,82.64
2019-04-10T18:44:59.439Z,83.13
2019-04-10T18:47:32.327Z,82.62
2019-04-10T18:50:22.377Z,83.42
2019-04-10T18:52:51.982Z,84.33
2019-04-10T18:55:23.243Z,83.66
2019-04-10T18:57:54.839Z,84.82
2019-04-10T19:00:43.455Z,85.24
2019-04-10T19:03:29.640Z,86.13
2019-04-10T19:06:02.597Z,86.42
2019-04-10T19:09:04.981Z,87.29
2019-04-10T19:11:26.796Z,87.74
2019-04-10T19:13:55.442Z,87.97
2019-04-10T19:16:27.649Z,89.26
2019-04-10T19:18:57.237Z,89.21
2019-04-10T19:21:27.995Z,89.89
2019-04-10T19:24:00.110Z,91.67
2019-04-10T19:26:33.917Z,92.35
2019-04-10T19:29:07.515Z,94.82
2019-04-10T19:31:38.781Z,96.29
2019-04-10T19:34:09.707Z,98.14
2019-04-10T19:36:42.134Z,99.69
2019-04-10T19:39:12.595Z,100.00
2019-04-10T19:41:46.992Z,100.00
2019-04-10T19:44:21.140Z,100.00
2019-04-10T19:46:50.989Z,100.00
2019-04-10T19:49:20.377Z,100.00
2019-04-10T19:51:51.831Z,100.00
2019-04-10T19:54:41.256Z,100.00
2019-04-10T19:57:13.476Z,100.00
2019-04-10T19:59:44.078Z,100.00
2019-04-10T20:02:15.052Z,100.00
2019-04-10T20:04:45.715Z,100.00
2019-04-10T20:07:16.574Z,100.00
2019-04-10T20:09:46.467Z,100.00
2019-04-10T20:12:18.212Z,100.00
2019-04-10T20:14:51.026Z,100.00
2019-04-10T20:17:24.057Z,100.00
2019-04-10T20:19:57.170Z,100.00
2019-04-10T20:22:30.706Z,100.00
2019-04-10T20:25:02.218Z,100.00
2019-04-10T20:27:32.041Z,100.00
2019-04-10T20:30:01.945Z,100.00
2019-04-10T20:32:32.324Z,100.00
2019-04-10T20:35:02.363Z,100.00
2019-04-10T20:37:39.960Z,100.00
2019-04-10T20:40:11.924Z,100.00
2019-04-10T20:42:43.203Z,100.00
2019-04-10T20:45:14.220Z,100.00
2019-04-10T20:47:44.650Z,100.00
2019-04-10T20:50:15.418Z,100.00
2019-04-10T20:52:47.251Z,100.00
2019-04-10T20:55:17.566Z,100.00
2019-04-10T20:57:49.989Z,100.00
2019-04-10T21:00:30.121Z,100.00
2019-04-10T21:03:01.469Z,100.00
2019-04-10T21:05:33.752Z,100.00
2019-04-10T21:08:06.569Z,100.00
2019-04-10T21:10:38.734Z,100.00
2019-04-10T21:13:08.693Z,100.00
2019-04-10T21:15:42.216Z,100.00
2019-04-10T21:18:34.269Z,100.00
2019-04-10T21:21:03.954Z,100.00
2019-04-10T21:23:34.288Z,100.00
2019-04-10T21:26:06.058Z,100.00
2019-04-10T21:28:48.334Z,100.00
2019-04-10T21:31:43.307Z,100.00
2019-04-10T21:34:30.439Z,100.00
2019-04-10T21:37:08.408Z,100.00
2019-04-10T21:39:38.262Z,100.00
2019-04-10T21:42:18.607Z,100.00
2019-04-10T21:44:45.017Z,100.00
2019-04-10T21:47:14.441Z,100.00
2019-04-10T21:49:46.276Z,100.00
2019-04-10T21:52:16.635Z,100.00
2019-04-10T21:54:51.059Z,100.00
2019-04-10T21:57:18.108Z,100.00
2019-04-10T21:59:47.602Z,100.00
2019-04-10T22:02:19.886Z,100.00
2019-04-10T22:04:49.817Z,100.00
2019-04-10T22:07:48.688Z,100.00
2019-04-10T22:10:48.400Z,100.00
2019-04-10T22:13:20.504Z,100.00
2019-04-10T22:15:53.641Z,100.00
2019-04-10T22:18:23.358Z,100.00
2019-04-10T22:20:54.585Z,100.00
2019-04-10T22:23:27.232Z,100.00
2019-04-10T22:25:56.804Z,100.00
2019-04-10T22:28:26.432Z,100.00
2019-04-10T22:31:18.133Z,100.00
2019-04-10T22:33:47.518Z,100.00
2019-04-10T22:36:24.845Z,100.00
2019-04-10T22:39:04.784Z,100.00
2019-04-10T22:41:38.527Z,100.00
2019-04-10T22:44:08.244Z,100.00
2019-04-10T22:46:42.495Z,100.00
2019-04-10T22:49:12.429Z,100.00
2019-04-10T22:51:42.188Z,100.00
2019-04-10T22:54:13.068Z,100.00
2019-04-10T22:56:42.347Z,100.00
2019-04-10T22:59:12.119Z,100.00
2019-04-10T23:01:43.249Z,100.00
2019-04-10T23:04:14.801Z,100.00
2019-04-10T23:06:45.662Z,100.00
2019-04-10T23:09:15.928Z,100.00
2019-04-10T23:11:46.877Z,100.00
2019-04-10T23:14:16.923Z,100.00
2019-04-10T23:16:48.417Z,100.00
2019-04-10T23:19:18.334Z,100.00
2019-04-10T23:21:49.135Z,100.00
2019-04-10T23:24:21.274Z,100.00
2019-04-10T23:26:51.538Z,100.00
2019-04-10T23:29:22.269Z,100.00
2019-04-10T23:31:52.066Z,100.00
2019-04-10T23:34:23.528Z,100.00
2019-04-10T23:36:56.142Z,100.00
2019-04-10T23:39:26.366Z,100.00
2019-04-10T23:41:57.022Z,100.00
2019-04-10T23:44:27.012Z,100.00
2019-04-10T23:46:56.273Z,100.00
2019-04-10T23:49:28.271Z,100.00
2019-04-10T23:51:59.133Z,100.00
2019-04-10T23:54:29.543Z,100.00
2019-04-10T23:57:01.044Z,100.00
2019-04-10T23:59:32.984Z,100.00
